Stations météo

réclame
Mon MeteoGroup
Kew Gardens, Grande-Bretagne (99095): Température de l'air & dewpoint: 07.07.2020 19:00:00 - 13.07.2020 19:00:00 (BST)Kew Gardens, Grande-Bretagne (99095): Température de l'air -20cm & Température de l'air -100cm: 07.07.2020 19:00:00 - 13.07.2020 19:00:00 (BST)Kew Gardens, Grande-Bretagne (99095): Vitesse du vent: 07.07.2020 19:00:00 - 13.07.2020 19:00:00 (BST)Kew Gardens, Grande-Bretagne (99095): Direction du vent: 07.07.2020 19:00:00 - 13.07.2020 19:00:00 (BST)Kew Gardens, Grande-Bretagne (99095): Quantités de précipitations: 07.07.2020 19:00:00 - 13.07.2020 19:00:00 (BST)
Date & Time tt [°C] td [°C] tt -20cm [°C] tt -100cm [°C] ff [km/h] ff [knt] dd rr [mm]
13.07.2020 19:00:00 - - - - - - - -
13.07.2020 18:00:00 23,7 11,0 - - 11 6 W 0,0
13.07.2020 17:00:00 24,6 9,4 - - 9 5 W 0,0
13.07.2020 16:00:00 24,9 10,2 - - 11 6 WNW 0,0
13.07.2020 15:00:00 23,7 6,0 - - 11 6 W 0,0
13.07.2020 14:00:00 23,9 3,8 - - 13 7 WNW 0,0
13.07.2020 13:00:00 24,1 5,4 - - 9 5 W 0,0
13.07.2020 12:00:00 24,1 6,6 - - 13 7 W 0,0
13.07.2020 11:00:00 22,4 4,9 - - 11 6 W 0,0
13.07.2020 10:00:00 21,5 5,4 18,2 18,0 9 5 WSW 0,0
13.07.2020 09:00:00 19,5 9,0 - - 5 3 WSW 0,0
13.07.2020 08:00:00 15,9 10,6 - - 4 2 SSW 0,0
13.07.2020 07:00:00 13,7 10,5 - - 5 3 SSW 0,0
13.07.2020 06:00:00 11,2 10,2 - - 4 2 SW 0,0
13.07.2020 05:00:00 9,7 8,7 - - 4 2 SW 0,0
13.07.2020 04:00:00 9,6 8,1 - - 4 2 SW 0,0
13.07.2020 03:00:00 9,9 7,7 - - 4 2 WSW 0,0
13.07.2020 02:00:00 10,8 7,4 - - 2 1 SW 0,0
13.07.2020 01:00:00 12,0 7,2 - - 4 2 SSW 0,0
13.07.2020 00:00:00 13,5 7,5 - - 4 2 SW 0,0
12.07.2020 23:00:00 14,9 7,5 - - 5 3 S 0,0
12.07.2020 22:00:00 17,1 8,5 - - 8 4 SSW 0,0
12.07.2020 21:00:00 18,8 9,0 - - 11 6 SSW 0,0
12.07.2020 20:00:00 21,6 6,2 - - 2 1 WSW 0,0
12.07.2020 19:00:00 23,6 4,9 - - 4 2 SSW 0,0
12.07.2020 18:00:00 23,6 4,7 - - 4 2 SW 0,0
12.07.2020 17:00:00 25,0 6,7 - - 8 4 W 0,0
12.07.2020 16:00:00 23,1 4,7 - - 4 2 E 0,0
12.07.2020 15:00:00 23,3 5,1 - - 5 3 WNW 0,0
12.07.2020 14:00:00 21,4 5,1 - - 5 3 NNW 0,0
12.07.2020 13:00:00 20,8 5,9 - - 5 3 W 0,0
12.07.2020 12:00:00 21,4 6,3 - - 5 3 W 0,0
12.07.2020 11:00:00 20,4 6,3 - - 5 3 WSW 0,0
12.07.2020 10:00:00 20,0 9,1 17,7 17,9 5 3 W 0,0
12.07.2020 09:00:00 17,4 9,4 - - 2 1 SSE 0,0
12.07.2020 08:00:00 15,1 10,1 - - 2 1 E 0,0
12.07.2020 07:00:00 10,6 10,5 - - 2 1 SSE 0,0
12.07.2020 06:00:00 7,8 7,6 - - 2 1 SSW 0,0
12.07.2020 05:00:00 7,6 7,1 - - 0 0 N 0,0
12.07.2020 04:00:00 8,2 7,7 - - 0 0 N 0,0
12.07.2020 03:00:00 8,3 7,6 - - 0 0 N 0,0
12.07.2020 02:00:00 8,9 7,8 - - 0 0 N 0,0
12.07.2020 01:00:00 9,7 7,9 - - 0 0 N 0,0
12.07.2020 00:00:00 10,4 7,9 - - 0 0 N 0,0
11.07.2020 23:00:00 11,6 7,8 - - 2 1 NNW 0,0
11.07.2020 22:00:00 13,6 6,4 - - 2 1 N 0,0
11.07.2020 21:00:00 17,6 6,1 - - 5 3 NW 0,0
11.07.2020 20:00:00 18,9 5,6 - - 9 5 NW 0,0
11.07.2020 19:00:00 20,3 5,0 - - 9 5 NW 0,0
11.07.2020 18:00:00 20,3 5,5 - - 5 3 N 0,0
11.07.2020 17:00:00 19,3 5,5 - - 8 4 N 0,0
11.07.2020 16:00:00 19,9 6,4 - - 9 5 NNW 0,0
11.07.2020 15:00:00 19,8 7,0 - - 8 4 NNW 0,0
11.07.2020 14:00:00 20,4 7,3 - - 9 5 NW 0,0
11.07.2020 13:00:00 19,4 6,9 - - 9 5 NW 0,0
11.07.2020 12:00:00 18,8 5,8 - - 11 6 NNW 0,0
11.07.2020 11:00:00 16,7 6,6 - - 11 6 NW 0,0
11.07.2020 10:00:00 16,5 8,1 17,4 17,9 13 7 WNW 0,0
11.07.2020 09:00:00 15,6 7,5 - - 11 6 NNW 0,0
11.07.2020 08:00:00 14,1 9,0 - - 11 6 NW 0,0
11.07.2020 07:00:00 11,7 8,2 - - 4 2 WNW 0,0
11.07.2020 06:00:00 7,9 7,3 - - 4 2 W 0,0
11.07.2020 05:00:00 7,5 6,7 - - 5 3 W 0,0
11.07.2020 04:00:00 8,1 7,1 - - 9 5 WNW 0,0
11.07.2020 03:00:00 9,1 7,1 - - 5 3 WNW 0,0
11.07.2020 02:00:00 10,9 6,9 - - 8 4 WNW 0,0
11.07.2020 01:00:00 11,8 7,4 - - 9 5 NW 0,0
11.07.2020 00:00:00 10,9 8,1 - - 5 3 NW 0,0
10.07.2020 23:00:00 12,1 7,5 - - 5 3 NW 0,0
10.07.2020 22:00:00 15,0 7,2 - - 5 3 NW 0,0
10.07.2020 21:00:00 16,6 6,3 - - 9 5 NW 0,0
10.07.2020 20:00:00 17,8 5,5 - - 13 7 NW 0,0
10.07.2020 19:00:00 17,8 5,8 - - 15 8 NW 0,0
10.07.2020 18:00:00 18,1 4,8 - - 13 7 NW 0,0
10.07.2020 17:00:00 19,2 7,1 - - 11 6 WNW 0,0
10.07.2020 16:00:00 18,3 5,9 - - 15 8 WNW 0,0
10.07.2020 15:00:00 19,1 8,0 - - 11 6 WNW 0,0
10.07.2020 14:00:00 16,8 7,3 - - 11 6 NW 0,0
10.07.2020 13:00:00 18,0 8,3 - - 11 6 NW 0,0
10.07.2020 12:00:00 17,6 7,4 - - 13 7 WNW 0,0
10.07.2020 11:00:00 16,7 8,7 - - 11 6 NW 0,0
10.07.2020 10:00:00 15,6 8,7 17,9 17,9 18 10 WNW 0,0
10.07.2020 09:00:00 14,9 11,3 - - 13 7 NW 0,0
10.07.2020 08:00:00 13,9 11,3 - - 11 6 NW 0,0
10.07.2020 07:00:00 13,1 11,6 - - 11 6 WNW 0,0
10.07.2020 06:00:00 12,7 11,7 - - 9 5 NW 0,0
10.07.2020 05:00:00 12,7 11,9 - - 11 6 NW 0,4
10.07.2020 04:00:00 12,9 11,7 - - 11 6 NNW 0,0
10.07.2020 03:00:00 13,7 12,2 - - 11 6 NW 0,0
10.07.2020 02:00:00 13,9 12,6 - - 9 5 NW 0,0
10.07.2020 01:00:00 14,3 12,8 - - 9 5 NW 0,0
10.07.2020 00:00:00 15,1 13,5 - - 11 6 NNW 0,0
09.07.2020 23:00:00 15,5 14,3 - - 9 5 NNW 0,0
09.07.2020 22:00:00 15,9 15,2 - - 5 3 NNW 1,8
09.07.2020 21:00:00 18,1 15,4 - - 9 5 WSW 0,0
09.07.2020 20:00:00 18,3 15,6 - - 5 3 WSW 0,0
09.07.2020 19:00:00 18,4 15,7 - - 9 5 WSW 0,0
09.07.2020 18:00:00 18,5 16,1 - - 8 4 SW 0,0
09.07.2020 17:00:00 18,3 16,7 - - 8 4 SW 0,2
09.07.2020 16:00:00 17,7 16,2 - - 8 4 SW 0,2
09.07.2020 15:00:00 18,6 15,5 - - 8 4 SW 0,0
09.07.2020 14:00:00 19,8 15,3 - - 11 6 SW 0,0
09.07.2020 13:00:00 19,9 15,1 - - 11 6 SW 0,0
09.07.2020 12:00:00 19,4 14,9 - - 8 4 SW 0,0
09.07.2020 11:00:00 18,3 15,2 - - 9 5 WSW 0,0
09.07.2020 10:00:00 17,4 14,7 18,2 17,9 9 5 WSW 0,0
09.07.2020 09:00:00 17,3 14,7 - - 9 5 WSW 0,0
09.07.2020 08:00:00 16,6 14,6 - - 9 5 WSW 0,0
09.07.2020 07:00:00 15,9 14,6 - - 11 6 SW 0,2
09.07.2020 06:00:00 15,9 14,7 - - 9 5 SW 0,0
09.07.2020 05:00:00 16,1 15,0 - - 8 4 SW 0,6
09.07.2020 04:00:00 16,5 15,5 - - 8 4 SSW 0,0
09.07.2020 03:00:00 16,6 15,7 - - 8 4 SW 0,0
09.07.2020 02:00:00 16,9 15,8 - - 8 4 SW 0,0
09.07.2020 01:00:00 17,0 16,1 - - 8 4 SW 0,2
09.07.2020 00:00:00 17,3 16,7 - - 5 3 SW 0,0
08.07.2020 23:00:00 17,2 16,6 - - 4 2 SW 0,0
08.07.2020 22:00:00 17,2 16,6 - - 4 2 SW 0,0
08.07.2020 21:00:00 17,3 16,6 - - 4 2 WSW 0,4
08.07.2020 20:00:00 17,4 16,3 - - 5 3 WSW 0,6
08.07.2020 19:00:00 18,6 15,6 - - 11 6 W 0,0
08.07.2020 18:00:00 19,4 16,0 - - 5 3 WNW 0,0
08.07.2020 17:00:00 19,7 15,9 - - 11 6 WNW 0,0
08.07.2020 16:00:00 19,2 15,7 - - 9 5 W 0,0
08.07.2020 15:00:00 19,5 15,7 - - 9 5 W 0,0
08.07.2020 14:00:00 18,5 14,7 - - 8 4 WNW 0,0
08.07.2020 13:00:00 19,2 15,3 - - 11 6 W 0,0
08.07.2020 12:00:00 18,2 16,1 - - 9 5 W 0,0
08.07.2020 11:00:00 17,8 16,1 - - 8 4 WSW 0,0
08.07.2020 10:00:00 16,5 15,7 18,0 18,0 5 3 W 0,0
08.07.2020 09:00:00 15,8 15,4 - - 8 4 W 0,0
08.07.2020 08:00:00 15,3 14,9 - - 5 3 WSW 0,6
08.07.2020 07:00:00 14,8 14,5 - - 5 3 WSW 1,8
08.07.2020 06:00:00 14,5 14,2 - - 5 3 WSW 2,6
08.07.2020 05:00:00 14,3 14,0 - - 8 4 SW 0,8
08.07.2020 04:00:00 14,2 13,9 - - 5 3 SW 0,6
08.07.2020 03:00:00 14,1 13,7 - - 5 3 SW 0,2
08.07.2020 02:00:00 14,1 13,7 - - 4 2 SSW 0,2
08.07.2020 01:00:00 14,1 13,7 - - 4 2 S 0,2
08.07.2020 00:00:00 13,9 13,5 - - 4 2 SSE 0,2
07.07.2020 23:00:00 13,6 13,2 - - 4 2 S 0,6
07.07.2020 22:00:00 13,5 12,9 - - 4 2 S 1,0
07.07.2020 21:00:00 13,7 12,6 - - 4 2 NW 1,0
07.07.2020 20:00:00 14,3 12,4 - - 5 3 NNW 0,0
07.07.2020 19:00:00 17,4 9,8 - - 15 8 WNW 0,0

tt = Température de l'air
td = dewpoint
tt -20cm = Température de l'air -20cm
tt -100cm = Température de l'air -100cm
ff = Vitesse du vent
dd = Direction du vent
rr = Quantités de précipitations

stations d'obs. à proximité